Time;durP1;ratioP1;P1;durP2;ratioP2;P2;SDS_P1;SDS_P2;PMS_P1;PMS_P2;Temp;Humidity;BMP_temperature;BMP_pressure;BME280_temperature;BME280_humidity;BME280_pressure;Samples;Min_cycle;Max_cycle;Signal;HPM_P1;HPM_P2
2021/06/28 00:02:13;;;;;;;;;;;11.10;99.90;;;;;;5001791;28;19916;-79
2021/06/28 00:04:39;;;;;;;;;;;11.00;99.90;;;;;;4995478;28;20000;-79
2021/06/28 00:07:04;;;;;;;;;;;11.10;99.90;;;;;;4994084;28;19960;-79
2021/06/28 00:09:30;;;;;;;;;;;11.00;99.90;;;;;;4995304;28;19906;-79
2021/06/28 00:11:55;;;;;;;;;;;11.00;99.90;;;;;;4994820;28;19916;-79
2021/06/28 00:14:21;;;;;;;;;;;11.00;99.90;;;;;;4995158;28;19979;-79
2021/06/28 00:16:46;;;;;;;;;;;11.00;99.90;;;;;;4993520;28;20541;-79
2021/06/28 00:19:12;;;;;;;;;;;11.00;99.90;;;;;;4995205;28;19960;-79
2021/06/28 00:21:39;;;;;;;;;;;11.10;99.90;;;;;;4998273;28;19909;-79
2021/06/28 00:24:07;;;;;;;;;;;11.00;99.90;;;;;;5006368;28;19913;-79
2021/06/28 00:26:33;;;;;;;;;;;11.00;99.90;;;;;;4993681;28;19906;-79
2021/06/28 00:28:59;;;;;;;;;;;11.00;99.90;;;;;;4995055;28;20290;-79
2021/06/28 00:31:24;;;;;;;;;;;10.90;99.90;;;;;;4993529;28;19972;-79
2021/06/28 00:33:49;;;;;;;;;;;10.80;99.90;;;;;;5012726;28;19925;-79
2021/06/28 00:36:15;;;;;;;;;;;10.80;99.90;;;;;;5014463;28;20412;-79
2021/06/28 00:38:40;;;;;;;;;;;10.80;99.90;;;;;;5014383;28;19909;-79
2021/06/28 00:41:06;;;;;;;;;;;10.80;99.90;;;;;;5014215;28;19905;-79
2021/06/28 00:43:32;;;;;;;;;;;10.70;99.90;;;;;;5012364;28;19923;-79
2021/06/28 00:45:57;;;;;;;;;;;10.60;99.90;;;;;;5013011;28;19905;-79
2021/06/28 00:48:23;;;;;;;;;;;10.60;99.90;;;;;;5014253;28;19952;-79
2021/06/28 00:50:51;;;;;;;;;;;10.50;99.90;;;;;;5012871;28;20413;-79
2021/06/28 00:53:18;;;;;;;;;;;10.50;99.90;;;;;;5004879;28;19965;-79
2021/06/28 00:55:46;;;;;;;;;;;10.50;99.90;;;;;;4994412;28;19920;-79
2021/06/28 00:58:12;;;;;;;;;;;10.40;99.90;;;;;;4993117;28;19906;-79
2021/06/28 01:00:38;;;;;;;;;;;10.40;99.90;;;;;;4994377;28;20385;-79
2021/06/28 01:03:04;;;;;;;;;;;10.40;99.90;;;;;;4994097;28;19944;-79
2021/06/28 01:05:32;;;;;;;;;;;10.40;99.90;;;;;;5016636;28;20334;-79
2021/06/28 01:08:02;;;;;;;;;;;10.40;99.90;;;;;;5012599;28;19905;-79
2021/06/28 01:10:27;;;;;;;;;;;10.30;99.90;;;;;;5013521;28;19905;-79
2021/06/28 01:12:53;;;;;;;;;;;10.30;99.90;;;;;;5012181;28;19905;-79
2021/06/28 01:15:19;;;;;;;;;;;10.30;99.90;;;;;;5024917;28;19964;-79
2021/06/28 01:17:45;;;;;;;;;;;10.30;99.90;;;;;;5007569;28;19924;-79
2021/06/28 01:20:12;;;;;;;;;;;10.20;99.90;;;;;;5013637;28;19905;-79
2021/06/28 01:22:39;;;;;;;;;;;10.20;99.90;;;;;;5011902;28;20281;-79
2021/06/28 01:25:06;;;;;;;;;;;10.20;99.90;;;;;;4997364;28;19968;-79
2021/06/28 01:27:31;;;;;;;;;;;10.10;99.90;;;;;;4993756;28;19949;-79
2021/06/28 01:29:57;;;;;;;;;;;10.10;99.90;;;;;;4992567;28;19979;-79
2021/06/28 01:32:23;;;;;;;;;;;10.10;99.90;;;;;;4993520;28;19912;-79
2021/06/28 01:34:49;;;;;;;;;;;10.00;99.90;;;;;;4994734;28;19913;-79
2021/06/28 01:37:25;;;;;;;;;;;10.00;99.90;;;;;;4992472;28;19928;-79
2021/06/28 01:39:52;;;;;;;;;;;9.90;99.90;;;;;;4993629;28;20277;-79
2021/06/28 01:42:17;;;;;;;;;;;9.90;99.90;;;;;;4993256;28;19906;-79
2021/06/28 01:44:43;;;;;;;;;;;9.90;99.90;;;;;;4999232;28;19916;-79
2021/06/28 01:47:09;;;;;;;;;;;9.90;99.90;;;;;;5011923;28;19992;-79
2021/06/28 01:49:34;;;;;;;;;;;9.90;99.90;;;;;;5013079;28;20473;-79
2021/06/28 01:51:59;;;;;;;;;;;9.90;99.90;;;;;;5011469;28;19906;-79
2021/06/28 01:54:28;;;;;;;;;;;9.90;99.90;;;;;;5011895;28;19920;-78
2021/06/28 01:56:54;;;;;;;;;;;9.80;99.90;;;;;;4993348;28;19910;-79
2021/06/28 01:59:23;;;;;;;;;;;9.80;99.90;;;;;;4993370;28;19906;-79
2021/06/28 02:01:49;;;;;;;;;;;9.80;99.90;;;;;;4993096;28;19909;-79
2021/06/28 02:04:18;;;;;;;;;;;9.80;99.90;;;;;;4993127;28;19964;-79
2021/06/28 02:06:43;;;;;;;;;;;9.80;99.90;;;;;;5009440;28;20370;-79
2021/06/28 02:09:09;;;;;;;;;;;9.80;99.90;;;;;;5011555;28;19916;-79
2021/06/28 02:11:34;;;;;;;;;;;9.80;99.90;;;;;;5012600;28;19905;-79
2021/06/28 02:14:00;;;;;;;;;;;9.80;99.90;;;;;;5012705;28;19909;-79
2021/06/28 02:16:25;;;;;;;;;;;9.80;99.90;;;;;;5001212;28;19913;-79
2021/06/28 02:18:51;;;;;;;;;;;9.70;99.90;;;;;;4992489;28;19935;-79
2021/06/28 02:21:16;;;;;;;;;;;9.70;99.90;;;;;;4992714;28;19956;-79
2021/06/28 02:23:41;;;;;;;;;;;9.80;99.90;;;;;;4992825;28;19913;-79
2021/06/28 02:26:11;;;;;;;;;;;9.70;99.90;;;;;;4998639;28;20007;-79
2021/06/28 02:28:37;;;;;;;;;;;9.80;99.90;;;;;;5011324;28;19975;-79
2021/06/28 02:31:04;;;;;;;;;;;9.70;99.90;;;;;;5011285;28;19905;-79
2021/06/28 02:33:29;;;;;;;;;;;9.60;99.90;;;;;;5012245;28;19905;-78
2021/06/28 02:35:55;;;;;;;;;;;9.60;99.90;;;;;;5009593;28;19909;-79
2021/06/28 02:38:21;;;;;;;;;;;9.50;99.90;;;;;;4993568;28;19909;-79
2021/06/28 02:40:46;;;;;;;;;;;9.50;99.90;;;;;;4992844;28;19944;-79
2021/06/28 02:43:12;;;;;;;;;;;9.50;99.90;;;;;;4992523;28;19998;-79
2021/06/28 02:45:37;;;;;;;;;;;9.50;99.90;;;;;;4992789;28;19910;-79
2021/06/28 02:48:04;;;;;;;;;;;9.40;99.90;;;;;;5008503;28;19920;-78
2021/06/28 02:50:29;;;;;;;;;;;9.40;99.90;;;;;;5012254;28;19913;-79
2021/06/28 02:52:55;;;;;;;;;;;9.40;99.90;;;;;;5011823;28;19950;-79
2021/06/28 02:55:20;;;;;;;;;;;9.40;99.90;;;;;;5011063;28;19906;-79
2021/06/28 02:57:46;;;;;;;;;;;9.40;99.90;;;;;;5007560;28;19910;-79
2021/06/28 03:00:14;;;;;;;;;;;9.40;99.90;;;;;;5024264;28;20290;-79
2021/06/28 03:02:39;;;;;;;;;;;9.40;99.90;;;;;;4992218;28;19917;-79
2021/06/28 03:05:06;;;;;;;;;;;9.40;99.90;;;;;;5024148;28;19909;-79
2021/06/28 03:07:32;;;;;;;;;;;9.40;99.90;;;;;;4998419;28;19976;-79
2021/06/28 03:09:57;;;;;;;;;;;9.40;99.90;;;;;;5012240;28;20353;-79
2021/06/28 03:12:23;;;;;;;;;;;9.40;99.90;;;;;;5011929;28;19906;-79
2021/06/28 03:14:48;;;;;;;;;;;9.30;99.90;;;;;;5011694;28;20361;-79
2021/06/28 03:17:14;;;;;;;;;;;9.40;99.90;;;;;;5011085;28;19912;-79
2021/06/28 03:19:39;;;;;;;;;;;9.40;99.90;;;;;;4992529;28;19913;-79
2021/06/28 03:22:05;;;;;;;;;;;9.40;99.90;;;;;;4990894;28;19906;-79
2021/06/28 03:24:30;;;;;;;;;;;9.40;99.90;;;;;;4992328;28;20381;-79
2021/06/28 03:26:56;;;;;;;;;;;9.50;99.90;;;;;;4991207;28;19953;-79
2021/06/28 03:29:22;;;;;;;;;;;9.50;99.90;;;;;;5007152;28;19913;-79
2021/06/28 03:31:47;;;;;;;;;;;9.50;99.90;;;;;;5015486;28;19951;-79
2021/06/28 03:34:12;;;;;;;;;;;9.50;99.90;;;;;;5015557;28;20346;-79
2021/06/28 03:36:38;;;;;;;;;;;9.50;99.90;;;;;;5015548;28;19988;-79
2021/06/28 03:39:04;;;;;;;;;;;9.60;99.90;;;;;;5012147;28;19909;-79
2021/06/28 03:41:29;;;;;;;;;;;9.60;99.90;;;;;;5013995;28;20285;-79
2021/06/28 03:43:55;;;;;;;;;;;9.70;99.90;;;;;;5015313;28;19913;-79
2021/06/28 03:46:20;;;;;;;;;;;9.70;99.90;;;;;;5014163;28;20420;-79
2021/06/28 03:48:46;;;;;;;;;;;9.80;99.90;;;;;;5010423;28;20285;-79
2021/06/28 03:51:12;;;;;;;;;;;9.90;99.90;;;;;;5011099;28;19919;-79
2021/06/28 03:53:38;;;;;;;;;;;9.90;99.90;;;;;;5013676;28;19913;-79
2021/06/28 03:56:06;;;;;;;;;;;10.00;99.90;;;;;;5013979;28;19906;-80
2021/06/28 03:58:35;;;;;;;;;;;10.10;99.90;;;;;;5014904;28;19909;-79
2021/06/28 04:01:01;;;;;;;;;;;10.10;99.90;;;;;;5014225;28;20004;-80
2021/06/28 04:03:28;;;;;;;;;;;10.20;99.90;;;;;;5014827;28;19988;-79
2021/06/28 04:05:54;;;;;;;;;;;10.30;99.90;;;;;;5014925;28;19905;-79
2021/06/28 04:08:20;;;;;;;;;;;10.40;99.90;;;;;;5013765;28;20012;-79
2021/06/28 04:10:45;;;;;;;;;;;10.60;99.90;;;;;;5000364;28;19917;-79
2021/06/28 04:13:10;;;;;;;;;;;10.80;99.90;;;;;;4993814;28;19906;-79
2021/06/28 04:15:36;;;;;;;;;;;10.90;99.90;;;;;;4995307;28;19905;-79
2021/06/28 04:18:02;;;;;;;;;;;10.90;99.90;;;;;;4995279;28;19917;-80
2021/06/28 04:20:27;;;;;;;;;;;10.90;99.90;;;;;;5004799;28;20006;-79
2021/06/28 04:22:53;;;;;;;;;;;11.00;99.90;;;;;;5014321;28;19909;-79
2021/06/28 04:25:19;;;;;;;;;;;11.10;99.90;;;;;;5013521;28;19912;-80
2021/06/28 04:27:45;;;;;;;;;;;11.20;99.90;;;;;;5013324;28;19919;-79
2021/06/28 04:30:11;;;;;;;;;;;11.20;99.90;;;;;;5009555;28;20319;-80
2021/06/28 04:32:37;;;;;;;;;;;11.30;99.90;;;;;;4993437;28;20334;-79
2021/06/28 04:35:03;;;;;;;;;;;11.40;99.90;;;;;;5014418;28;19948;-79
2021/06/28 04:37:29;;;;;;;;;;;11.50;99.90;;;;;;5013146;28;20416;-80
2021/06/28 04:39:54;;;;;;;;;;;11.50;99.90;;;;;;5012741;28;19906;-80
2021/06/28 04:42:20;;;;;;;;;;;11.60;99.90;;;;;;4994056;28;19910;-79
2021/06/28 04:44:45;;;;;;;;;;;11.70;99.90;;;;;;5008375;28;20366;-80
2021/06/28 04:47:11;;;;;;;;;;;11.80;99.90;;;;;;5014254;28;19906;-79
2021/06/28 04:49:36;;;;;;;;;;;11.90;99.90;;;;;;5014164;28;20008;-79
2021/06/28 04:52:02;;;;;;;;;;;12.00;99.90;;;;;;4999445;28;19960;-79
2021/06/28 04:54:27;;;;;;;;;;;12.00;99.90;;;;;;4993188;28;19921;-80
2021/06/28 04:56:53;;;;;;;;;;;12.10;99.90;;;;;;4993266;28;20408;-79
2021/06/28 04:59:19;;;;;;;;;;;12.20;99.90;;;;;;4994469;28;19913;-80
2021/06/28 05:01:45;;;;;;;;;;;12.30;99.90;;;;;;5002880;28;19984;-80
2021/06/28 05:04:10;;;;;;;;;;;12.40;99.90;;;;;;5012458;28;19918;-80
2021/06/28 05:06:36;;;;;;;;;;;12.50;99.90;;;;;;5013899;28;19999;-79
2021/06/28 05:09:01;;;;;;;;;;;12.60;99.90;;;;;;5012571;28;19912;-80
2021/06/28 05:11:26;;;;;;;;;;;12.70;99.90;;;;;;5009597;28;19933;-79
2021/06/28 05:13:52;;;;;;;;;;;12.80;99.90;;;;;;4992390;28;19919;-79
2021/06/28 05:16:17;;;;;;;;;;;12.90;99.90;;;;;;4994128;28;19960;-79
2021/06/28 05:18:43;;;;;;;;;;;13.00;99.90;;;;;;4992840;28;19906;-79
2021/06/28 05:21:08;;;;;;;;;;;13.10;99.90;;;;;;4992619;28;19905;-79
2021/06/28 05:23:34;;;;;;;;;;;13.20;99.90;;;;;;5011596;28;19921;-79
2021/06/28 05:25:59;;;;;;;;;;;13.30;99.90;;;;;;5000213;28;19910;-79
2021/06/28 05:28:25;;;;;;;;;;;13.60;99.90;;;;;;4993827;28;19949;-79
2021/06/28 05:30:51;;;;;;;;;;;13.60;99.90;;;;;;4992597;28;20008;-79
2021/06/28 05:33:16;;;;;;;;;;;13.70;99.90;;;;;;5005975;28;19932;-79
2021/06/28 05:35:42;;;;;;;;;;;13.90;99.90;;;;;;5013303;28;19909;-79
2021/06/28 05:38:07;;;;;;;;;;;14.00;99.90;;;;;;5013376;28;19905;-79
2021/06/28 05:40:33;;;;;;;;;;;14.10;99.90;;;;;;5000071;28;19905;-79
2021/06/28 05:42:58;;;;;;;;;;;14.20;99.90;;;;;;5006878;28;20307;-79
2021/06/28 05:45:24;;;;;;;;;;;14.30;99.90;;;;;;5006835;28;20277;-80
2021/06/28 05:47:49;;;;;;;;;;;14.50;99.90;;;;;;5008427;28;19948;-79
2021/06/28 05:50:18;;;;;;;;;;;14.60;99.90;;;;;;5008567;28;19906;-79
2021/06/28 05:52:44;;;;;;;;;;;14.90;99.90;;;;;;5005245;28;20064;-79
2021/06/28 05:55:10;;;;;;;;;;;14.90;99.90;;;;;;5007007;28;20397;-80
2021/06/28 05:57:36;;;;;;;;;;;15.10;99.90;;;;;;5002967;28;19905;-79
2021/06/28 06:00:04;;;;;;;;;;;15.30;99.90;;;;;;5008454;28;19952;-80
2021/06/28 06:02:29;;;;;;;;;;;15.40;99.90;;;;;;5006067;28;19916;-79
2021/06/28 06:04:55;;;;;;;;;;;15.50;99.90;;;;;;4995690;28;19909;-80
2021/06/28 06:07:20;;;;;;;;;;;15.70;99.90;;;;;;5004225;28;19951;-80
2021/06/28 06:09:46;;;;;;;;;;;15.90;99.90;;;;;;5007100;28;19960;-80
2021/06/28 06:12:11;;;;;;;;;;;16.00;99.90;;;;;;5007643;28;19914;-80
2021/06/28 06:14:37;;;;;;;;;;;16.20;99.90;;;;;;5014780;28;19917;-80
2021/06/28 06:17:02;;;;;;;;;;;16.40;99.90;;;;;;5008412;28;20008;-80
2021/06/28 06:19:28;;;;;;;;;;;16.40;99.90;;;;;;5008340;28;20543;-80
2021/06/28 06:21:53;;;;;;;;;;;16.80;99.90;;;;;;5007801;28;19917;-81
2021/06/28 06:24:23;;;;;;;;;;;16.90;99.90;;;;;;5005413;28;20489;-80
2021/06/28 06:26:48;;;;;;;;;;;17.00;99.90;;;;;;5023179;28;20370;-79
2021/06/28 06:29:14;;;;;;;;;;;16.90;99.90;;;;;;5007078;28;19924;-80
2021/06/28 06:31:39;;;;;;;;;;;17.10;99.90;;;;;;5007928;28;20404;-78
2021/06/28 06:34:05;;;;;;;;;;;17.40;99.90;;;;;;5007372;28;19910;-79
2021/06/28 06:36:30;;;;;;;;;;;17.50;99.90;;;;;;5006853;28;19909;-78
2021/06/28 06:38:56;;;;;;;;;;;17.80;99.90;;;;;;5007206;28;19912;-79
2021/06/28 06:41:21;;;;;;;;;;;17.90;99.90;;;;;;5008130;28;19909;-78
2021/06/28 06:43:47;;;;;;;;;;;18.10;99.90;;;;;;5008311;28;19944;-78
2021/06/28 06:46:12;;;;;;;;;;;18.10;99.90;;;;;;5012964;28;20324;-78
2021/06/28 06:48:37;;;;;;;;;;;18.40;99.90;;;;;;5008636;28;19952;-79
2021/06/28 06:51:03;;;;;;;;;;;18.40;99.90;;;;;;5009066;28;19937;-78
2021/06/28 06:53:29;;;;;;;;;;;18.60;99.90;;;;;;5010543;28;19921;-79
2021/06/28 06:55:54;;;;;;;;;;;18.90;99.90;;;;;;5007136;28;19969;-78
2021/06/28 06:58:20;;;;;;;;;;;19.00;99.90;;;;;;4997738;28;20423;-78
2021/06/28 07:00:45;;;;;;;;;;;19.10;99.90;;;;;;4992528;28;20117;-79
2021/06/28 07:03:11;;;;;;;;;;;19.20;99.90;;;;;;5013453;28;19909;-79
2021/06/28 07:05:37;;;;;;;;;;;19.50;99.90;;;;;;5034165;28;20312;-79
2021/06/28 07:08:03;;;;;;;;;;;19.50;99.90;;;;;;5035740;28;19915;-79
2021/06/28 07:10:29;;;;;;;;;;;19.60;99.90;;;;;;5027784;28;19909;-79
2021/06/28 07:12:54;;;;;;;;;;;19.80;99.90;;;;;;5025489;28;19924;-79
2021/06/28 07:15:20;;;;;;;;;;;20.00;99.90;;;;;;5023100;28;20333;-78
2021/06/28 07:17:46;;;;;;;;;;;20.00;99.90;;;;;;5008009;28;19912;-78
2021/06/28 07:20:13;;;;;;;;;;;20.20;99.90;;;;;;5015746;28;19906;-80
2021/06/28 07:22:39;;;;;;;;;;;20.30;99.90;;;;;;5015405;28;20377;-80
2021/06/28 07:25:06;;;;;;;;;;;20.60;99.90;;;;;;5014454;28;19912;-80
2021/06/28 07:27:32;;;;;;;;;;;20.80;99.90;;;;;;5010286;28;19924;-80
2021/06/28 07:29:57;;;;;;;;;;;20.70;99.90;;;;;;5001536;28;20000;-80
2021/06/28 07:32:22;;;;;;;;;;;20.70;99.90;;;;;;4994357;28;19968;-80
2021/06/28 07:34:48;;;;;;;;;;;20.50;99.90;;;;;;4996046;28;19910;-80
2021/06/28 07:37:14;;;;;;;;;;;20.90;99.90;;;;;;4994551;28;20358;-82
2021/06/28 07:39:39;;;;;;;;;;;21.10;99.90;;;;;;5013758;28;20004;-81
2021/06/28 07:42:05;;;;;;;;;;;21.40;99.90;;;;;;5015164;28;19906;-81
2021/06/28 07:44:30;;;;;;;;;;;21.40;99.90;;;;;;5014138;28;20088;-80
2021/06/28 07:46:55;;;;;;;;;;;21.50;99.90;;;;;;5015249;28;19940;-80
2021/06/28 07:49:21;;;;;;;;;;;21.60;99.90;;;;;;5001874;28;19909;-80
2021/06/28 07:51:47;;;;;;;;;;;21.80;99.90;;;;;;4995410;28;20023;-80
2021/06/28 07:54:17;;;;;;;;;;;21.90;99.90;;;;;;4995476;28;19914;-81
2021/06/28 07:56:44;;;;;;;;;;;22.30;99.90;;;;;;4994383;28;19917;-82
2021/06/28 07:59:10;;;;;;;;;;;22.40;99.90;;;;;;5003904;28;20011;-83
2021/06/28 08:01:36;;;;;;;;;;;22.70;99.90;;;;;;5013622;28;19943;-81
2021/06/28 08:04:01;;;;;;;;;;;22.80;99.90;;;;;;5014850;28;20394;-80
2021/06/28 08:06:27;;;;;;;;;;;23.00;99.90;;;;;;5014859;28;19955;-81
2021/06/28 08:08:52;;;;;;;;;;;23.10;99.90;;;;;;5011145;28;19922;-81
2021/06/28 08:11:19;;;;;;;;;;;23.10;99.90;;;;;;5024246;28;19960;-79
2021/06/28 08:13:46;;;;;;;;;;;23.30;99.90;;;;;;5007457;28;19920;-79
2021/06/28 08:16:11;;;;;;;;;;;23.40;99.90;;;;;;5009618;28;20377;-80
2021/06/28 08:18:37;;;;;;;;;;;23.40;99.90;;;;;;5009516;28;19996;-79
2021/06/28 08:21:03;;;;;;;;;;;23.50;99.90;;;;;;5010339;28;20012;-79
2021/06/28 08:23:29;;;;;;;;;;;23.70;99.90;;;;;;5008788;28;19992;-80
2021/06/28 08:25:55;;;;;;;;;;;23.70;99.90;;;;;;5003578;28;20023;-79
2021/06/28 08:28:20;;;;;;;;;;;23.80;99.90;;;;;;5009553;28;19913;-79
2021/06/28 08:30:46;;;;;;;;;;;23.80;99.90;;;;;;5006604;28;20003;-80
2021/06/28 08:33:11;;;;;;;;;;;23.90;99.90;;;;;;5009648;28;19913;-79
2021/06/28 08:35:37;;;;;;;;;;;23.90;99.90;;;;;;5009609;28;19983;-79
2021/06/28 08:38:03;;;;;;;;;;;23.90;99.90;;;;;;5008499;28;20409;-79
2021/06/28 08:40:29;;;;;;;;;;;24.10;99.90;;;;;;5007898;28;19921;-80
2021/06/28 08:42:55;;;;;;;;;;;24.20;99.90;;;;;;5009215;28;19909;-79
2021/06/28 08:45:22;;;;;;;;;;;24.20;99.90;;;;;;5009946;28;20301;-78
2021/06/28 08:47:47;;;;;;;;;;;24.30;99.90;;;;;;5011816;28;19911;-79
2021/06/28 08:50:13;;;;;;;;;;;24.50;99.90;;;;;;5012367;28;19917;-80
2021/06/28 08:52:39;;;;;;;;;;;24.20;99.90;;;;;;4999705;28;19910;-80
2021/06/28 08:55:05;;;;;;;;;;;24.30;99.90;;;;;;4994095;28;19913;-79
2021/06/28 08:57:31;;;;;;;;;;;24.50;99.90;;;;;;4993023;28;19906;-79
2021/06/28 08:59:57;;;;;;;;;;;24.70;99.90;;;;;;4994337;28;19905;-80
2021/06/28 09:02:22;;;;;;;;;;;24.80;99.90;;;;;;5009367;28;20580;-80
2021/06/28 09:04:58;;;;;;;;;;;25.00;99.90;;;;;;5012637;28;19906;-80
2021/06/28 09:07:23;;;;;;;;;;;25.20;99.90;;;;;;5013899;28;20285;-79
2021/06/28 09:09:49;;;;;;;;;;;25.20;99.90;;;;;;5012415;28;19929;-80
2021/06/28 09:12:16;;;;;;;;;;;25.40;99.90;;;;;;5001509;28;19918;-80
2021/06/28 09:14:49;;;;;;;;;;;25.60;99.90;;;;;;5003342;28;19909;-80
2021/06/28 09:17:34;;;;;;;;;;;25.60;99.90;;;;;;5009311;28;19916;-80
2021/06/28 09:20:16;;;;;;;;;;;25.70;99.90;;;;;;5005334;28;19906;-79
2021/06/28 09:22:42;;;;;;;;;;;26.00;99.90;;;;;;5004327;28;19964;-80
2021/06/28 09:25:27;;;;;;;;;;;25.80;99.90;;;;;;5008579;28;19952;-79
2021/06/28 09:27:52;;;;;;;;;;;26.00;99.90;;;;;;4997973;28;19914;-79
2021/06/28 09:30:20;;;;;;;;;;;26.30;99.90;;;;;;4993699;28;20282;-79
2021/06/28 09:32:59;;;;;;;;;;;26.60;99.90;;;;;;4999476;28;20366;-80
2021/06/28 09:35:30;;;;;;;;;;;26.70;99.90;;;;;;4997466;28;19983;-79
2021/06/28 09:37:56;;;;;;;;;;;26.90;99.90;;;;;;4993768;28;20001;-80
2021/06/28 09:40:25;;;;;;;;;;;27.10;99.90;;;;;;4993771;28;19909;-79
2021/06/28 09:42:51;;;;;;;;;;;27.40;99.90;;;;;;5009504;28;20383;-80
2021/06/28 09:45:17;;;;;;;;;;;27.60;99.90;;;;;;5013159;28;20008;-79
2021/06/28 09:47:43;;;;;;;;;;;27.70;99.90;;;;;;5001966;28;19916;-80
2021/06/28 09:50:09;;;;;;;;;;;27.80;99.90;;;;;;4993551;28;20344;-80
2021/06/28 09:52:35;;;;;;;;;;;27.80;99.90;;;;;;5001514;28;19909;-79
2021/06/28 09:55:23;;;;;;;;;;;27.80;99.90;;;;;;5013134;28;19992;-81
2021/06/28 09:58:17;;;;;;;;;;;28.00;99.90;;;;;;5007443;28;19910;-80
2021/06/28 10:00:44;;;;;;;;;;;27.70;99.90;;;;;;5010698;28;19917;-79
2021/06/28 10:03:28;;;;;;;;;;;27.40;99.90;;;;;;5001310;28;19913;-79
2021/06/28 10:06:02;;;;;;;;;;;27.20;99.90;;;;;;4993215;28;20503;-78
2021/06/28 10:08:34;;;;;;;;;;;27.20;99.90;;;;;;4992030;28;20325;-81
2021/06/28 10:11:10;;;;;;;;;;;27.30;99.90;;;;;;4996580;28;20028;-81
2021/06/28 10:13:35;;;;;;;;;;;27.60;99.90;;;;;;5007744;28;19909;-80
2021/06/28 10:16:01;;;;;;;;;;;28.10;99.90;;;;;;5011453;28;19912;-78
2021/06/28 10:18:26;;;;;;;;;;;28.30;99.90;;;;;;5012635;28;19996;-82
2021/06/28 10:20:52;;;;;;;;;;;28.60;99.90;;;;;;5010948;28;20390;-81
2021/06/28 10:23:17;;;;;;;;;;;29.00;99.90;;;;;;4994689;28;19997;-81
2021/06/28 10:25:43;;;;;;;;;;;29.30;99.90;;;;;;4992726;28;19910;-80
2021/06/28 10:28:08;;;;;;;;;;;29.60;99.90;;;;;;4992877;28;19906;-81
2021/06/28 10:30:34;;;;;;;;;;;29.40;99.90;;;;;;4992987;28;19912;-77
2021/06/28 10:33:05;;;;;;;;;;;29.30;99.90;;;;;;5005637;28;19909;-78
2021/06/28 10:35:32;;;;;;;;;;;29.40;99.90;;;;;;5012571;28;20293;-78
2021/06/28 10:38:02;;;;;;;;;;;29.50;99.90;;;;;;5012262;28;19906;-79
2021/06/28 10:40:29;;;;;;;;;;;29.90;99.90;;;;;;5010464;28;19909;-79
2021/06/28 10:42:55;;;;;;;;;;;30.00;99.90;;;;;;5012095;28;19909;-80
2021/06/28 10:45:50;;;;;;;;;;;30.30;99.90;;;;;;5011002;28;19905;-80
2021/06/28 10:48:17;;;;;;;;;;;30.10;99.90;;;;;;5011693;28;19906;-80
2021/06/28 10:50:52;;;;;;;;;;;30.40;99.90;;;;;;5010161;28;19910;-80
2021/06/28 10:53:39;;;;;;;;;;;30.90;99.90;;;;;;4992254;28;19913;-80
2021/06/28 10:56:31;;;;;;;;;;;31.20;99.90;;;;;;4989734;28;19914;-80
2021/06/28 10:58:58;;;;;;;;;;;31.40;99.90;;;;;;4991249;28;19913;-80
2021/06/28 11:01:37;;;;;;;;;;;31.50;99.90;;;;;;5008520;28;19918;-80
2021/06/28 11:04:03;;;;;;;;;;;31.40;99.90;;;;;;5009687;28;20278;-80
2021/06/28 11:06:29;;;;;;;;;;;31.70;99.90;;;;;;5012225;28;20366;-80
2021/06/28 11:08:57;;;;;;;;;;;31.70;99.90;;;;;;5012142;28;19913;-80
2021/06/28 11:11:43;;;;;;;;;;;31.60;99.90;;;;;;4994468;28;19913;-80
2021/06/28 11:14:09;;;;;;;;;;;31.30;99.90;;;;;;4991964;28;19910;-79
2021/06/28 11:16:35;;;;;;;;;;;30.70;99.90;;;;;;4992584;28;19905;-78
2021/06/28 11:19:20;;;;;;;;;;;30.30;99.90;;;;;;4992399;28;19906;-79
2021/06/28 11:21:46;;;;;;;;;;;30.40;99.90;;;;;;4994615;28;20275;-79
2021/06/28 11:24:28;;;;;;;;;;;30.40;99.90;;;;;;4993289;28;20235;-78
2021/06/28 11:27:13;;;;;;;;;;;30.10;99.90;;;;;;5011953;28;19909;-79
2021/06/28 11:29:54;;;;;;;;;;;30.30;99.90;;;;;;5011892;28;20008;-79
2021/06/28 11:32:24;;;;;;;;;;;30.40;99.90;;;;;;5010270;28;20412;-80
2021/06/28 11:34:49;;;;;;;;;;;30.30;99.90;;;;;;5011864;28;19913;-79
2021/06/28 11:37:15;;;;;;;;;;;30.60;99.90;;;;;;5011915;28;19912;-79
2021/06/28 11:39:57;;;;;;;;;;;30.80;99.90;;;;;;5010615;28;19966;-79
2021/06/28 11:42:26;;;;;;;;;;;30.70;99.90;;;;;;4991847;28;20433;-79
2021/06/28 11:44:53;;;;;;;;;;;30.50;99.90;;;;;;4992215;28;19949;-80
2021/06/28 11:47:39;;;;;;;;;;;30.70;99.90;;;;;;4990559;28;19906;-79
2021/06/28 11:50:37;;;;;;;;;;;31.00;99.90;;;;;;5002381;28;20377;-79
2021/06/28 11:53:05;;;;;;;;;;;31.50;99.90;;;;;;5004563;28;19972;-79
2021/06/28 11:55:32;;;;;;;;;;;31.70;99.90;;;;;;5008034;28;19909;-78
2021/06/28 11:57:59;;;;;;;;;;;31.90;98.20;;;;;;5008055;28;19906;-79
2021/06/28 12:00:25;;;;;;;;;;;32.10;99.90;;;;;;5025963;28;20394;-79
2021/06/28 12:03:09;;;;;;;;;;;32.50;99.60;;;;;;5009620;28;19916;-79
2021/06/28 12:05:34;;;;;;;;;;;32.60;98.10;;;;;;5009500;28;19905;-81
2021/06/28 12:08:00;;;;;;;;;;;33.10;97.90;;;;;;5014964;28;20008;-80
2021/06/28 12:10:25;;;;;;;;;;;33.70;97.90;;;;;;5008261;28;20033;-81
2021/06/28 12:12:57;;;;;;;;;;;33.60;95.10;;;;;;5008499;28;19909;-81
2021/06/28 12:15:24;;;;;;;;;;;33.80;94.50;;;;;;5008262;28;19919;-80
2021/06/28 12:17:49;;;;;;;;;;;34.10;95.90;;;;;;5009958;28;20358;-81
2021/06/28 12:20:18;;;;;;;;;;;34.20;93.70;;;;;;5009795;28;19910;-81
2021/06/28 12:22:44;;;;;;;;;;;34.10;91.70;;;;;;5008736;28;19941;-81
2021/06/28 12:25:10;;;;;;;;;;;34.10;91.80;;;;;;5010513;28;19959;-83
2021/06/28 12:27:39;;;;;;;;;;;34.10;94.00;;;;;;5009236;28;20000;-82
2021/06/28 12:30:06;;;;;;;;;;;34.70;88.60;;;;;;5007475;28;20008;-82
2021/06/28 12:32:34;;;;;;;;;;;34.70;90.40;;;;;;5009473;28;19905;-82
2021/06/28 12:35:09;;;;;;;;;;;34.80;81.60;;;;;;5010203;28;19948;-80
2021/06/28 12:37:36;;;;;;;;;;;34.20;80.70;;;;;;5010265;28;19906;-81
2021/06/28 12:40:24;;;;;;;;;;;34.30;86.10;;;;;;5022813;28;19910;-82
2021/06/28 12:42:51;;;;;;;;;;;34.70;84.10;;;;;;5009990;28;19953;-82
2021/06/28 12:45:18;;;;;;;;;;;34.40;77.20;;;;;;5009623;28;19910;-80
2021/06/28 12:47:46;;;;;;;;;;;34.20;83.00;;;;;;5010559;28;19912;-84
2021/06/28 12:50:31;;;;;;;;;;;34.10;85.40;;;;;;5008918;28;19992;-84
2021/06/28 12:52:56;;;;;;;;;;;34.20;84.20;;;;;;5000702;28;20503;-83
2021/06/28 12:55:29;;;;;;;;;;;34.50;89.60;;;;;;5007748;28;19948;-84
2021/06/28 12:58:08;;;;;;;;;;;35.30;85.60;;;;;;5001404;28;19909;-83
2021/06/28 13:00:34;;;;;;;;;;;35.10;82.30;;;;;;5009768;28;19913;-84
2021/06/28 13:03:08;;;;;;;;;;;34.70;79.00;;;;;;5008809;28;20366;-85
2021/06/28 13:05:34;;;;;;;;;;;34.20;78.80;;;;;;5009761;28;20553;-83
2021/06/28 13:08:07;;;;;;;;;;;34.40;88.10;;;;;;5008883;28;20275;-86
2021/06/28 13:10:32;;;;;;;;;;;35.20;83.60;;;;;;5009285;28;20405;-85
2021/06/28 13:13:15;;;;;;;;;;;36.20;82.10;;;;;;5016932;28;19913;-84
2021/06/28 13:15:40;;;;;;;;;;;36.80;78.60;;;;;;5009686;28;19913;-86
2021/06/28 13:18:06;;;;;;;;;;;37.40;76.80;;;;;;5008870;28;19905;-85
2021/06/28 13:20:31;;;;;;;;;;;37.40;72.90;;;;;;5007815;28;19909;-86
2021/06/28 13:22:56;;;;;;;;;;;36.90;67.20;;;;;;5008946;28;19905;-86
2021/06/28 13:25:23;;;;;;;;;;;36.00;70.10;;;;;;5008042;28;19910;-85
2021/06/28 13:27:49;;;;;;;;;;;35.90;70.70;;;;;;5007462;28;19967;-85
2021/06/28 13:30:18;;;;;;;;;;;34.80;70.90;;;;;;5007298;28;20389;-81
2021/06/28 13:32:44;;;;;;;;;;;33.70;78.10;;;;;;5005412;28;20000;-80
2021/06/28 13:35:09;;;;;;;;;;;34.00;78.70;;;;;;5007676;28;20005;-80
2021/06/28 13:37:37;;;;;;;;;;;34.90;76.60;;;;;;5009312;28;19948;-82
2021/06/28 13:40:04;;;;;;;;;;;35.80;78.50;;;;;;5007639;28;20385;-81
2021/06/28 13:42:35;;;;;;;;;;;36.50;76.90;;;;;;5007270;28;19928;-81
2021/06/28 13:45:06;;;;;;;;;;;36.50;72.60;;;;;;5008088;28;19917;-81
2021/06/28 13:47:33;;;;;;;;;;;36.70;74.90;;;;;;5007401;28;19921;-81
2021/06/28 13:50:00;;;;;;;;;;;37.30;69.80;;;;;;5008936;28;19941;-81
2021/06/28 13:52:26;;;;;;;;;;;36.60;69.80;;;;;;5006342;28;19915;-81
2021/06/28 13:54:51;;;;;;;;;;;35.10;69.80;;;;;;5007490;28;19995;-81
2021/06/28 13:57:17;;;;;;;;;;;34.30;77.00;;;;;;5003226;28;20386;-81
2021/06/28 13:59:42;;;;;;;;;;;34.10;78.80;;;;;;5008606;28;19916;-82
2021/06/28 14:02:08;;;;;;;;;;;34.60;74.10;;;;;;5006063;28;19910;-81
2021/06/28 14:04:33;;;;;;;;;;;35.10;76.70;;;;;;5008661;28;19905;-81
2021/06/28 14:06:59;;;;;;;;;;;35.20;74.90;;;;;;5009017;28;20001;-81
2021/06/28 14:09:24;;;;;;;;;;;35.20;77.90;;;;;;5009330;28;19905;-82
2021/06/28 14:11:50;;;;;;;;;;;35.90;75.30;;;;;;5007058;28;20290;-80
2021/06/28 14:16:45;;;;;;;;;;;36.40;71.10;;;;;;5079995;27;19920;-79
2021/06/28 14:19:10;;;;;;;;;;;35.60;75.10;;;;;;5103317;28;19927;-80
2021/06/28 14:23:23;;;;;;;3.15;1.95;;;34.60;76.60;;;;;;5067311;27;20401;-82
2021/06/28 14:25:49;;;;;;;4.88;2.53;;;33.80;79.00;;;;;;5046438;28;20137;-80